sensor_id;sensor_type;location;lat;lon;timestamp;temperature;humidity
652;DHT22;310;48.490;9.200;2022-07-04T00:00:49;22.80;40.80
652;DHT22;310;48.490;9.200;2022-07-04T00:03:15;23.40;38.80
652;DHT22;310;48.490;9.200;2022-07-04T00:05:40;24.10;37.10
652;DHT22;310;48.490;9.200;2022-07-04T00:08:06;24.20;36.70
652;DHT22;310;48.490;9.200;2022-07-04T00:10:32;24.50;37.40
652;DHT22;310;48.490;9.200;2022-07-04T00:12:57;24.90;34.80
652;DHT22;310;48.490;9.200;2022-07-04T00:15:23;25.00;35.00
652;DHT22;310;48.490;9.200;2022-07-04T00:17:50;25.00;34.50
652;DHT22;310;48.490;9.200;2022-07-04T00:20:16;24.80;35.70
652;DHT22;310;48.490;9.200;2022-07-04T00:22:41;24.80;35.00
652;DHT22;310;48.490;9.200;2022-07-04T00:25:07;24.70;35.80
652;DHT22;310;48.490;9.200;2022-07-04T00:27:33;24.70;35.80
652;DHT22;310;48.490;9.200;2022-07-04T00:29:59;24.80;35.00
652;DHT22;310;48.490;9.200;2022-07-04T00:32:24;24.90;34.80
652;DHT22;310;48.490;9.200;2022-07-04T00:34:50;24.70;34.90
652;DHT22;310;48.490;9.200;2022-07-04T00:37:16;24.70;35.40
652;DHT22;310;48.490;9.200;2022-07-04T00:39:41;24.60;36.90
652;DHT22;310;48.490;9.200;2022-07-04T00:42:08;24.50;37.40
652;DHT22;310;48.490;9.200;2022-07-04T00:44:34;24.60;36.50
652;DHT22;310;48.490;9.200;2022-07-04T00:47:03;24.40;36.10
652;DHT22;310;48.490;9.200;2022-07-04T00:49:29;24.30;37.60
652;DHT22;310;48.490;9.200;2022-07-04T00:51:55;24.60;36.40
652;DHT22;310;48.490;9.200;2022-07-04T00:54:25;24.50;36.90
652;DHT22;310;48.490;9.200;2022-07-04T00:56:52;24.80;35.30
652;DHT22;310;48.490;9.200;2022-07-04T00:59:18;24.70;37.40
652;DHT22;310;48.490;9.200;2022-07-04T01:01:43;24.60;37.80
652;DHT22;310;48.490;9.200;2022-07-04T01:04:09;24.40;36.70
652;DHT22;310;48.490;9.200;2022-07-04T01:06:35;24.30;37.00
652;DHT22;310;48.490;9.200;2022-07-04T01:09:02;24.40;37.40
652;DHT22;310;48.490;9.200;2022-07-04T01:11:27;24.30;38.60
652;DHT22;310;48.490;9.200;2022-07-04T01:13:54;24.40;37.80
652;DHT22;310;48.490;9.200;2022-07-04T01:16:20;24.40;37.00
652;DHT22;310;48.490;9.200;2022-07-04T01:18:46;24.40;37.30
652;DHT22;310;48.490;9.200;2022-07-04T01:21:11;24.40;36.60
652;DHT22;310;48.490;9.200;2022-07-04T01:23:39;24.40;36.50
652;DHT22;310;48.490;9.200;2022-07-04T01:26:05;24.50;37.10
652;DHT22;310;48.490;9.200;2022-07-04T01:28:31;24.40;37.40
652;DHT22;310;48.490;9.200;2022-07-04T01:30:57;24.50;37.40
652;DHT22;310;48.490;9.200;2022-07-04T01:33:22;24.70;35.50
652;DHT22;310;48.490;9.200;2022-07-04T01:35:48;24.70;36.90
652;DHT22;310;48.490;9.200;2022-07-04T01:38:14;24.70;34.30
652;DHT22;310;48.490;9.200;2022-07-04T01:40:39;24.60;34.30
652;DHT22;310;48.490;9.200;2022-07-04T01:43:05;24.60;37.00
652;DHT22;310;48.490;9.200;2022-07-04T01:45:31;24.60;36.40
652;DHT22;310;48.490;9.200;2022-07-04T01:48:00;24.70;36.90
652;DHT22;310;48.490;9.200;2022-07-04T01:50:25;24.70;35.40
652;DHT22;310;48.490;9.200;2022-07-04T01:52:51;24.60;35.30
652;DHT22;310;48.490;9.200;2022-07-04T01:55:17;24.50;37.40
652;DHT22;310;48.490;9.200;2022-07-04T01:57:42;24.50;36.90
652;DHT22;310;48.490;9.200;2022-07-04T02:00:09;24.40;37.00
652;DHT22;310;48.490;9.200;2022-07-04T02:02:55;24.40;35.80
652;DHT22;310;48.490;9.200;2022-07-04T02:05:21;24.20;36.60
652;DHT22;310;48.490;9.200;2022-07-04T02:07:48;24.50;35.20
652;DHT22;310;48.490;9.200;2022-07-04T02:10:14;24.70;35.40
652;DHT22;310;48.490;9.200;2022-07-04T02:12:39;24.50;36.80
652;DHT22;310;48.490;9.200;2022-07-04T02:15:23;24.60;34.70
652;DHT22;310;48.490;9.200;2022-07-04T02:17:49;24.30;33.90
652;DHT22;310;48.490;9.200;2022-07-04T02:20:15;24.30;34.20
652;DHT22;310;48.490;9.200;2022-07-04T02:22:41;24.50;33.70
652;DHT22;310;48.490;9.200;2022-07-04T02:25:08;24.90;32.50
652;DHT22;310;48.490;9.200;2022-07-04T02:27:33;25.00;31.50
652;DHT22;310;48.490;9.200;2022-07-04T02:29:59;24.70;34.70
652;DHT22;310;48.490;9.200;2022-07-04T02:32:25;24.70;33.70
652;DHT22;310;48.490;9.200;2022-07-04T02:34:50;24.50;33.30
652;DHT22;310;48.490;9.200;2022-07-04T02:37:16;24.20;34.00
652;DHT22;310;48.490;9.200;2022-07-04T02:39:42;24.20;34.90
652;DHT22;310;48.490;9.200;2022-07-04T02:42:07;24.40;36.40
652;DHT22;310;48.490;9.200;2022-07-04T02:44:33;24.30;34.70
652;DHT22;310;48.490;9.200;2022-07-04T02:46:59;24.40;35.20
652;DHT22;310;48.490;9.200;2022-07-04T02:49:26;24.40;36.00
652;DHT22;310;48.490;9.200;2022-07-04T02:51:51;24.60;34.00
652;DHT22;310;48.490;9.200;2022-07-04T02:54:17;24.60;33.00
652;DHT22;310;48.490;9.200;2022-07-04T02:56:42;24.70;33.40
652;DHT22;310;48.490;9.200;2022-07-04T02:59:08;24.70;32.40
652;DHT22;310;48.490;9.200;2022-07-04T03:01:34;24.80;31.80
652;DHT22;310;48.490;9.200;2022-07-04T03:03:59;24.80;32.30
652;DHT22;310;48.490;9.200;2022-07-04T03:06:25;24.50;34.20
652;DHT22;310;48.490;9.200;2022-07-04T03:08:51;24.40;34.70
652;DHT22;310;48.490;9.200;2022-07-04T03:11:19;24.20;34.50
652;DHT22;310;48.490;9.200;2022-07-04T03:13:45;24.10;35.10
652;DHT22;310;48.490;9.200;2022-07-04T03:16:10;24.10;34.20
652;DHT22;310;48.490;9.200;2022-07-04T03:18:37;23.50;35.60
652;DHT22;310;48.490;9.200;2022-07-04T03:21:02;23.10;36.40
652;DHT22;310;48.490;9.200;2022-07-04T03:23:32;23.50;36.00
652;DHT22;310;48.490;9.200;2022-07-04T03:25:57;23.20;36.90
652;DHT22;310;48.490;9.200;2022-07-04T03:28:23;23.50;36.70
652;DHT22;310;48.490;9.200;2022-07-04T03:30:49;23.50;36.10
652;DHT22;310;48.490;9.200;2022-07-04T03:33:14;23.70;35.60
652;DHT22;310;48.490;9.200;2022-07-04T03:35:40;23.80;35.30
652;DHT22;310;48.490;9.200;2022-07-04T03:38:06;23.70;34.70
652;DHT22;310;48.490;9.200;2022-07-04T03:40:31;23.60;35.20
652;DHT22;310;48.490;9.200;2022-07-04T03:42:58;23.20;35.80
652;DHT22;310;48.490;9.200;2022-07-04T03:45:24;23.20;36.70
652;DHT22;310;48.490;9.200;2022-07-04T03:47:50;23.40;36.30
652;DHT22;310;48.490;9.200;2022-07-04T03:50:16;22.70;37.50
652;DHT22;310;48.490;9.200;2022-07-04T03:52:42;22.40;38.20
652;DHT22;310;48.490;9.200;2022-07-04T03:55:08;22.40;39.00
652;DHT22;310;48.490;9.200;2022-07-04T03:57:34;22.60;38.20
652;DHT22;310;48.490;9.200;2022-07-04T03:59:59;22.50;38.80
652;DHT22;310;48.490;9.200;2022-07-04T04:02:25;22.80;39.40
652;DHT22;310;48.490;9.200;2022-07-04T04:04:50;23.30;38.70
652;DHT22;310;48.490;9.200;2022-07-04T04:07:34;23.40;36.40
652;DHT22;310;48.490;9.200;2022-07-04T04:10:00;23.10;36.90
652;DHT22;310;48.490;9.200;2022-07-04T04:12:26;22.80;37.30
652;DHT22;310;48.490;9.200;2022-07-04T04:14:51;22.40;37.80
652;DHT22;310;48.490;9.200;2022-07-04T04:17:17;22.20;38.70
652;DHT22;310;48.490;9.200;2022-07-04T04:19:42;22.30;38.70
652;DHT22;310;48.490;9.200;2022-07-04T04:22:08;22.40;38.90
652;DHT22;310;48.490;9.200;2022-07-04T04:24:34;22.60;38.20
652;DHT22;310;48.490;9.200;2022-07-04T04:26:59;23.20;36.30
652;DHT22;310;48.490;9.200;2022-07-04T04:29:25;20.70;34.00
652;DHT22;310;48.490;9.200;2022-07-04T04:31:50;22.90;36.60
652;DHT22;310;48.490;9.200;2022-07-04T04:34:16;22.30;37.60
652;DHT22;310;48.490;9.200;2022-07-04T04:36:41;22.20;38.90
652;DHT22;310;48.490;9.200;2022-07-04T04:39:07;22.40;37.30
652;DHT22;310;48.490;9.200;2022-07-04T04:41:33;22.00;38.60
652;DHT22;310;48.490;9.200;2022-07-04T04:43:58;21.90;39.10
652;DHT22;310;48.490;9.200;2022-07-04T04:46:24;22.20;38.40
652;DHT22;310;48.490;9.200;2022-07-04T04:48:50;22.80;38.80
652;DHT22;310;48.490;9.200;2022-07-04T04:51:15;22.90;36.30
652;DHT22;310;48.490;9.200;2022-07-04T04:53:41;23.10;35.60
652;DHT22;310;48.490;9.200;2022-07-04T04:56:06;23.20;36.20
652;DHT22;310;48.490;9.200;2022-07-04T04:58:32;23.20;35.60
652;DHT22;310;48.490;9.200;2022-07-04T05:00:58;23.00;35.80
652;DHT22;310;48.490;9.200;2022-07-04T05:03:23;22.50;36.70
652;DHT22;310;48.490;9.200;2022-07-04T05:05:49;21.90;38.30
652;DHT22;310;48.490;9.200;2022-07-04T05:08:14;21.80;38.60
652;DHT22;310;48.490;9.200;2022-07-04T05:10:40;21.80;38.90
652;DHT22;310;48.490;9.200;2022-07-04T05:13:06;21.70;38.80
652;DHT22;310;48.490;9.200;2022-07-04T05:15:32;22.00;39.60
652;DHT22;310;48.490;9.200;2022-07-04T05:17:58;22.80;36.60
652;DHT22;310;48.490;9.200;2022-07-04T05:20:24;22.80;36.50
652;DHT22;310;48.490;9.200;2022-07-04T05:22:49;23.20;35.30
652;DHT22;310;48.490;9.200;2022-07-04T05:25:15;23.00;36.00
652;DHT22;310;48.490;9.200;2022-07-04T05:27:41;23.10;35.70
652;DHT22;310;48.490;9.200;2022-07-04T05:30:07;23.30;35.20
652;DHT22;310;48.490;9.200;2022-07-04T05:32:33;23.20;34.70
652;DHT22;310;48.490;9.200;2022-07-04T05:34:59;22.70;35.80
652;DHT22;310;48.490;9.200;2022-07-04T05:37:25;22.60;36.20
652;DHT22;310;48.490;9.200;2022-07-04T05:39:51;22.60;36.70
652;DHT22;310;48.490;9.200;2022-07-04T05:42:17;23.00;37.90
652;DHT22;310;48.490;9.200;2022-07-04T05:44:42;23.40;36.50
652;DHT22;310;48.490;9.200;2022-07-04T05:47:08;23.80;36.00
652;DHT22;310;48.490;9.200;2022-07-04T05:49:34;23.90;33.90
652;DHT22;310;48.490;9.200;2022-07-04T05:52:00;23.20;32.90
652;DHT22;310;48.490;9.200;2022-07-04T05:54:25;22.60;34.80
652;DHT22;310;48.490;9.200;2022-07-04T05:56:51;22.70;35.40
652;DHT22;310;48.490;9.200;2022-07-04T05:59:17;22.50;34.40
652;DHT22;310;48.490;9.200;2022-07-04T06:01:42;22.70;34.00
652;DHT22;310;48.490;9.200;2022-07-04T06:04:08;22.70;34.40
652;DHT22;310;48.490;9.200;2022-07-04T06:06:34;22.70;34.50
652;DHT22;310;48.490;9.200;2022-07-04T06:09:00;22.50;35.20
652;DHT22;310;48.490;9.200;2022-07-04T06:11:26;22.90;34.50
652;DHT22;310;48.490;9.200;2022-07-04T06:13:52;23.00;34.00
652;DHT22;310;48.490;9.200;2022-07-04T06:16:17;23.10;33.90
652;DHT22;310;48.490;9.200;2022-07-04T06:18:43;22.70;33.90
652;DHT22;310;48.490;9.200;2022-07-04T06:21:09;23.00;33.90
652;DHT22;310;48.490;9.200;2022-07-04T06:23:35;23.00;34.50
652;DHT22;310;48.490;9.200;2022-07-04T06:26:01;23.70;35.30
652;DHT22;310;48.490;9.200;2022-07-04T06:28:27;24.00;34.00
652;DHT22;310;48.490;9.200;2022-07-04T06:30:53;23.40;32.50
652;DHT22;310;48.490;9.200;2022-07-04T06:33:18;22.70;34.70
652;DHT22;310;48.490;9.200;2022-07-04T06:35:45;22.30;35.60
652;DHT22;310;48.490;9.200;2022-07-04T06:38:12;23.00;35.30
652;DHT22;310;48.490;9.200;2022-07-04T06:40:38;23.10;34.60
652;DHT22;310;48.490;9.200;2022-07-04T06:43:04;22.50;35.50
652;DHT22;310;48.490;9.200;2022-07-04T06:45:30;22.90;36.10
652;DHT22;310;48.490;9.200;2022-07-04T06:47:56;23.50;33.10
652;DHT22;310;48.490;9.200;2022-07-04T06:50:22;21.50;30.60
652;DHT22;310;48.490;9.200;2022-07-04T06:52:48;24.00;32.30
652;DHT22;310;48.490;9.200;2022-07-04T06:55:14;24.00;32.10
652;DHT22;310;48.490;9.200;2022-07-04T06:57:39;23.20;33.40
652;DHT22;310;48.490;9.200;2022-07-04T07:00:06;23.00;34.90
652;DHT22;310;48.490;9.200;2022-07-04T07:02:36;23.10;34.50
652;DHT22;310;48.490;9.200;2022-07-04T07:05:02;22.70;35.00
652;DHT22;310;48.490;9.200;2022-07-04T07:07:27;23.20;35.10
652;DHT22;310;48.490;9.200;2022-07-04T07:09:54;23.60;34.40
652;DHT22;310;48.490;9.200;2022-07-04T07:12:23;23.40;34.30
652;DHT22;310;48.490;9.200;2022-07-04T07:14:49;23.30;34.60
652;DHT22;310;48.490;9.200;2022-07-04T07:17:16;23.30;33.80
652;DHT22;310;48.490;9.200;2022-07-04T07:19:42;23.20;34.80
652;DHT22;310;48.490;9.200;2022-07-04T07:22:09;23.30;35.40
652;DHT22;310;48.490;9.200;2022-07-04T07:24:35;23.70;35.20
652;DHT22;310;48.490;9.200;2022-07-04T07:27:01;24.10;34.20
652;DHT22;310;48.490;9.200;2022-07-04T07:29:27;24.20;34.20
652;DHT22;310;48.490;9.200;2022-07-04T07:31:52;24.30;35.30
652;DHT22;310;48.490;9.200;2022-07-04T07:34:18;24.60;36.20
652;DHT22;310;48.490;9.200;2022-07-04T07:36:43;24.40;31.60
652;DHT22;310;48.490;9.200;2022-07-04T07:39:09;24.20;32.70
652;DHT22;310;48.490;9.200;2022-07-04T07:41:35;24.00;36.00
652;DHT22;310;48.490;9.200;2022-07-04T07:44:01;24.50;35.30
652;DHT22;310;48.490;9.200;2022-07-04T07:46:26;24.80;34.90
652;DHT22;310;48.490;9.200;2022-07-04T07:48:52;25.00;32.30
652;DHT22;310;48.490;9.200;2022-07-04T07:51:18;25.00;33.50
652;DHT22;310;48.490;9.200;2022-07-04T07:53:43;25.00;32.10
652;DHT22;310;48.490;9.200;2022-07-04T07:56:09;25.00;34.20
652;DHT22;310;48.490;9.200;2022-07-04T07:58:35;25.20;33.70
652;DHT22;310;48.490;9.200;2022-07-04T08:01:01;25.30;33.50
652;DHT22;310;48.490;9.200;2022-07-04T08:03:29;25.30;33.10
652;DHT22;310;48.490;9.200;2022-07-04T08:06:14;24.60;32.10
652;DHT22;310;48.490;9.200;2022-07-04T08:08:40;24.10;33.30
652;DHT22;310;48.490;9.200;2022-07-04T08:11:06;23.40;35.10
652;DHT22;310;48.490;9.200;2022-07-04T08:13:32;23.10;36.40
652;DHT22;310;48.490;9.200;2022-07-04T08:15:58;23.30;36.30
652;DHT22;310;48.490;9.200;2022-07-04T08:18:24;22.90;36.80
652;DHT22;310;48.490;9.200;2022-07-04T08:20:50;22.40;38.20
652;DHT22;310;48.490;9.200;2022-07-04T08:23:16;22.80;37.40
652;DHT22;310;48.490;9.200;2022-07-04T08:25:42;23.00;37.90
652;DHT22;310;48.490;9.200;2022-07-04T08:28:08;23.80;37.00
652;DHT22;310;48.490;9.200;2022-07-04T08:30:33;24.50;35.40
652;DHT22;310;48.490;9.200;2022-07-04T08:32:59;24.00;34.20
652;DHT22;310;48.490;9.200;2022-07-04T08:35:25;24.10;34.40
652;DHT22;310;48.490;9.200;2022-07-04T08:37:50;23.90;35.10
652;DHT22;310;48.490;9.200;2022-07-04T08:40:22;23.50;36.30
652;DHT22;310;48.490;9.200;2022-07-04T08:42:49;24.20;35.30
652;DHT22;310;48.490;9.200;2022-07-04T08:45:16;23.90;35.20
652;DHT22;310;48.490;9.200;2022-07-04T08:47:43;23.70;35.00
652;DHT22;310;48.490;9.200;2022-07-04T08:50:12;24.20;34.60
652;DHT22;310;48.490;9.200;2022-07-04T08:52:42;24.10;35.20
652;DHT22;310;48.490;9.200;2022-07-04T08:55:13;24.60;33.50
652;DHT22;310;48.490;9.200;2022-07-04T08:57:58;24.20;34.50
652;DHT22;310;48.490;9.200;2022-07-04T09:00:43;24.00;34.80
652;DHT22;310;48.490;9.200;2022-07-04T09:03:09;23.80;34.70
652;DHT22;310;48.490;9.200;2022-07-04T09:05:35;23.70;35.40
652;DHT22;310;48.490;9.200;2022-07-04T09:08:02;23.70;35.70
652;DHT22;310;48.490;9.200;2022-07-04T09:10:29;24.30;34.40
652;DHT22;310;48.490;9.200;2022-07-04T09:12:55;24.00;34.90
652;DHT22;310;48.490;9.200;2022-07-04T09:15:21;24.00;34.10
652;DHT22;310;48.490;9.200;2022-07-04T09:17:47;23.80;35.60
652;DHT22;310;48.490;9.200;2022-07-04T09:20:19;23.90;34.70
652;DHT22;310;48.490;9.200;2022-07-04T09:22:45;24.10;33.90
652;DHT22;310;48.490;9.200;2022-07-04T09:25:12;24.00;35.20
652;DHT22;310;48.490;9.200;2022-07-04T09:27:41;24.50;32.80
652;DHT22;310;48.490;9.200;2022-07-04T09:30:08;24.70;32.20
652;DHT22;310;48.490;9.200;2022-07-04T09:32:46;24.80;31.20
652;DHT22;310;48.490;9.200;2022-07-04T09:35:18;24.70;32.20
652;DHT22;310;48.490;9.200;2022-07-04T09:37:52;24.50;32.60
652;DHT22;310;48.490;9.200;2022-07-04T09:42:49;24.60;32.10
652;DHT22;310;48.490;9.200;2022-07-04T09:45:15;24.80;34.10
652;DHT22;310;48.490;9.200;2022-07-04T09:47:43;25.30;32.00
652;DHT22;310;48.490;9.200;2022-07-04T09:50:35;26.10;31.50
652;DHT22;310;48.490;9.200;2022-07-04T09:53:02;26.50;28.80
652;DHT22;310;48.490;9.200;2022-07-04T09:55:33;27.00;29.60
652;DHT22;310;48.490;9.200;2022-07-04T09:58:17;26.90;28.90
652;DHT22;310;48.490;9.200;2022-07-04T10:00:46;27.00;29.10
652;DHT22;310;48.490;9.200;2022-07-04T10:03:26;26.90;27.80
652;DHT22;310;48.490;9.200;2022-07-04T10:06:10;27.00;29.80
652;DHT22;310;48.490;9.200;2022-07-04T10:08:37;27.30;27.10
652;DHT22;310;48.490;9.200;2022-07-04T10:11:04;27.30;29.00
652;DHT22;310;48.490;9.200;2022-07-04T10:13:30;26.20;29.40
652;DHT22;310;48.490;9.200;2022-07-04T10:15:56;26.90;29.80
652;DHT22;310;48.490;9.200;2022-07-04T10:18:23;27.50;28.60
652;DHT22;310;48.490;9.200;2022-07-04T10:20:50;27.70;28.30
652;DHT22;310;48.490;9.200;2022-07-04T10:23:18;27.60;26.40
652;DHT22;310;48.490;9.200;2022-07-04T10:25:49;27.80;26.80
652;DHT22;310;48.490;9.200;2022-07-04T10:28:17;28.30;26.90
652;DHT22;310;48.490;9.200;2022-07-04T10:30:47;28.60;25.30
652;DHT22;310;48.490;9.200;2022-07-04T10:33:13;28.70;25.40
652;DHT22;310;48.490;9.200;2022-07-04T10:36:06;28.50;27.60
652;DHT22;310;48.490;9.200;2022-07-04T10:38:52;28.60;24.80
652;DHT22;310;48.490;9.200;2022-07-04T10:41:21;27.50;26.30
652;DHT22;310;48.490;9.200;2022-07-04T10:43:59;28.00;27.60
652;DHT22;310;48.490;9.200;2022-07-04T10:46:37;28.30;28.10
652;DHT22;310;48.490;9.200;2022-07-04T10:49:23;28.60;26.40
652;DHT22;310;48.490;9.200;2022-07-04T10:54:34;27.30;26.60
652;DHT22;310;48.490;9.200;2022-07-04T10:57:12;26.30;28.20
652;DHT22;310;48.490;9.200;2022-07-04T10:59:40;26.20;28.10
652;DHT22;310;48.490;9.200;2022-07-04T11:07:11;26.20;27.60
652;DHT22;310;48.490;9.200;2022-07-04T11:09:37;26.30;29.30
652;DHT22;310;48.490;9.200;2022-07-04T11:12:04;27.40;29.10
652;DHT22;310;48.490;9.200;2022-07-04T11:14:43;28.20;24.90
652;DHT22;310;48.490;9.200;2022-07-04T11:17:26;28.60;26.90
652;DHT22;310;48.490;9.200;2022-07-04T11:20:03;27.50;23.40
652;DHT22;310;48.490;9.200;2022-07-04T11:22:29;26.60;25.20
652;DHT22;310;48.490;9.200;2022-07-04T11:24:55;26.40;26.00
652;DHT22;310;48.490;9.200;2022-07-04T11:27:22;27.10;26.60
652;DHT22;310;48.490;9.200;2022-07-04T11:29:52;26.90;26.00
652;DHT22;310;48.490;9.200;2022-07-04T11:32:18;26.50;25.30
652;DHT22;310;48.490;9.200;2022-07-04T11:34:44;26.80;27.20
652;DHT22;310;48.490;9.200;2022-07-04T11:37:12;27.70;27.70
652;DHT22;310;48.490;9.200;2022-07-04T11:39:37;28.20;25.60
652;DHT22;310;48.490;9.200;2022-07-04T11:42:03;28.80;23.60
652;DHT22;310;48.490;9.200;2022-07-04T11:44:47;29.40;24.90
652;DHT22;310;48.490;9.200;2022-07-04T11:47:36;30.10;23.10
652;DHT22;310;48.490;9.200;2022-07-04T11:50:07;29.30;21.80
652;DHT22;310;48.490;9.200;2022-07-04T11:52:41;29.00;24.50
652;DHT22;310;48.490;9.200;2022-07-04T11:55:12;30.10;23.50
652;DHT22;310;48.490;9.200;2022-07-04T11:57:49;30.90;22.70
652;DHT22;310;48.490;9.200;2022-07-04T12:00:19;31.40;21.30
652;DHT22;310;48.490;9.200;2022-07-04T12:02:46;31.90;22.10
652;DHT22;310;48.490;9.200;2022-07-04T12:05:14;32.20;20.90
652;DHT22;310;48.490;9.200;2022-07-04T12:07:41;32.20;20.40
652;DHT22;310;48.490;9.200;2022-07-04T12:10:25;30.60;19.30
652;DHT22;310;48.490;9.200;2022-07-04T12:13:01;30.50;21.60
652;DHT22;310;48.490;9.200;2022-07-04T12:15:42;31.40;22.80
652;DHT22;310;48.490;9.200;2022-07-04T12:18:25;32.20;21.30
652;DHT22;310;48.490;9.200;2022-07-04T12:20:53;32.40;20.90
652;DHT22;310;48.490;9.200;2022-07-04T12:23:21;31.70;21.10
652;DHT22;310;48.490;9.200;2022-07-04T12:25:48;31.90;19.60
652;DHT22;310;48.490;9.200;2022-07-04T12:28:16;32.40;21.00
652;DHT22;310;48.490;9.200;2022-07-04T12:30:48;33.10;19.40
652;DHT22;310;48.490;9.200;2022-07-04T12:33:18;33.40;17.00
652;DHT22;310;48.490;9.200;2022-07-04T12:48:50;32.40;18.50
652;DHT22;310;48.490;9.200;2022-07-04T12:53:46;30.80;19.30
652;DHT22;310;48.490;9.200;2022-07-04T12:59:07;30.70;21.30
652;DHT22;310;48.490;9.200;2022-07-04T13:01:34;31.70;20.50
652;DHT22;310;48.490;9.200;2022-07-04T13:04:00;32.20;19.00
652;DHT22;310;48.490;9.200;2022-07-04T13:06:26;32.40;18.30
652;DHT22;310;48.490;9.200;2022-07-04T13:08:55;32.40;19.90
652;DHT22;310;48.490;9.200;2022-07-04T13:11:22;32.00;17.50
652;DHT22;310;48.490;9.200;2022-07-04T13:14:06;31.50;21.10
652;DHT22;310;48.490;9.200;2022-07-04T13:16:32;31.80;21.80
652;DHT22;310;48.490;9.200;2022-07-04T13:18:57;31.60;20.80
652;DHT22;310;48.490;9.200;2022-07-04T13:21:24;32.00;20.30
652;DHT22;310;48.490;9.200;2022-07-04T13:23:49;32.30;18.90
652;DHT22;310;48.490;9.200;2022-07-04T13:26:15;32.40;21.50
652;DHT22;310;48.490;9.200;2022-07-04T13:28:41;32.50;21.20
652;DHT22;310;48.490;9.200;2022-07-04T13:31:07;31.90;21.00
652;DHT22;310;48.490;9.200;2022-07-04T13:33:33;31.90;20.60
652;DHT22;310;48.490;9.200;2022-07-04T13:35:58;32.00;21.20
652;DHT22;310;48.490;9.200;2022-07-04T13:38:24;32.40;19.90
652;DHT22;310;48.490;9.200;2022-07-04T13:40:52;32.60;20.30
652;DHT22;310;48.490;9.200;2022-07-04T13:43:17;31.00;20.70
652;DHT22;310;48.490;9.200;2022-07-04T13:45:43;31.50;20.00
652;DHT22;310;48.490;9.200;2022-07-04T13:48:12;31.80;19.80
652;DHT22;310;48.490;9.200;2022-07-04T13:50:38;32.40;19.40
652;DHT22;310;48.490;9.200;2022-07-04T13:53:07;32.30;20.90
652;DHT22;310;48.490;9.200;2022-07-04T13:55:34;32.10;19.70
652;DHT22;310;48.490;9.200;2022-07-04T13:58:02;31.90;20.40
652;DHT22;310;48.490;9.200;2022-07-04T14:00:28;31.60;21.00
652;DHT22;310;48.490;9.200;2022-07-04T14:02:53;31.80;20.20
652;DHT22;310;48.490;9.200;2022-07-04T14:05:19;31.60;19.50
652;DHT22;310;48.490;9.200;2022-07-04T14:07:45;31.60;20.40
652;DHT22;310;48.490;9.200;2022-07-04T14:10:10;32.10;20.40
652;DHT22;310;48.490;9.200;2022-07-04T14:12:36;31.30;18.90
652;DHT22;310;48.490;9.200;2022-07-04T14:15:02;31.60;21.00
652;DHT22;310;48.490;9.200;2022-07-04T14:17:29;31.80;19.10
652;DHT22;310;48.490;9.200;2022-07-04T14:19:54;32.10;21.10
652;DHT22;310;48.490;9.200;2022-07-04T14:22:21;31.90;19.30
652;DHT22;310;48.490;9.200;2022-07-04T14:24:47;32.00;18.50
652;DHT22;310;48.490;9.200;2022-07-04T14:27:13;32.30;21.00
652;DHT22;310;48.490;9.200;2022-07-04T14:29:38;32.30;18.00
652;DHT22;310;48.490;9.200;2022-07-04T14:32:04;31.10;20.70
652;DHT22;310;48.490;9.200;2022-07-04T14:34:30;31.60;20.20
652;DHT22;310;48.490;9.200;2022-07-04T14:36:56;30.90;19.80
652;DHT22;310;48.490;9.200;2022-07-04T14:39:21;30.90;21.00
652;DHT22;310;48.490;9.200;2022-07-04T14:41:48;31.60;19.80
652;DHT22;310;48.490;9.200;2022-07-04T14:44:14;31.50;21.10
652;DHT22;310;48.490;9.200;2022-07-04T14:46:40;32.00;20.50
652;DHT22;310;48.490;9.200;2022-07-04T14:49:05;31.90;18.40
652;DHT22;310;48.490;9.200;2022-07-04T14:51:31;31.50;19.10
652;DHT22;310;48.490;9.200;2022-07-04T14:53:57;32.00;18.80
652;DHT22;310;48.490;9.200;2022-07-04T14:56:22;31.90;18.10
652;DHT22;310;48.490;9.200;2022-07-04T14:58:48;32.40;19.90
652;DHT22;310;48.490;9.200;2022-07-04T15:01:14;32.30;18.20
652;DHT22;310;48.490;9.200;2022-07-04T15:03:39;30.70;18.70
652;DHT22;310;48.490;9.200;2022-07-04T15:06:05;29.70;20.70
652;DHT22;310;48.490;9.200;2022-07-04T15:08:31;29.90;21.40
652;DHT22;310;48.490;9.200;2022-07-04T15:10:56;30.60;20.00
652;DHT22;310;48.490;9.200;2022-07-04T15:13:22;30.60;21.50
652;DHT22;310;48.490;9.200;2022-07-04T15:15:47;31.30;19.60
652;DHT22;310;48.490;9.200;2022-07-04T15:18:13;31.60;19.50
652;DHT22;310;48.490;9.200;2022-07-04T15:20:39;31.60;20.20
652;DHT22;310;48.490;9.200;2022-07-04T15:23:23;31.70;19.10
652;DHT22;310;48.490;9.200;2022-07-04T15:26:08;31.50;19.40
652;DHT22;310;48.490;9.200;2022-07-04T15:28:33;31.70;19.50
652;DHT22;310;48.490;9.200;2022-07-04T15:30:59;31.40;18.40
652;DHT22;310;48.490;9.200;2022-07-04T15:33:26;31.30;20.00
652;DHT22;310;48.490;9.200;2022-07-04T15:35:54;29.90;21.10
652;DHT22;310;48.490;9.200;2022-07-04T15:38:20;30.10;21.60
652;DHT22;310;48.490;9.200;2022-07-04T15:40:46;30.30;20.90
652;DHT22;310;48.490;9.200;2022-07-04T15:43:12;30.40;21.40
652;DHT22;310;48.490;9.200;2022-07-04T15:45:38;30.40;21.00
652;DHT22;310;48.490;9.200;2022-07-04T15:48:04;30.40;21.60
652;DHT22;310;48.490;9.200;2022-07-04T15:50:30;30.40;21.10
652;DHT22;310;48.490;9.200;2022-07-04T15:52:56;30.30;21.30
652;DHT22;310;48.490;9.200;2022-07-04T15:55:21;30.10;21.60
652;DHT22;310;48.490;9.200;2022-07-04T15:57:47;29.50;20.80
652;DHT22;310;48.490;9.200;2022-07-04T16:00:13;29.30;21.10
652;DHT22;310;48.490;9.200;2022-07-04T16:02:39;29.00;22.60
652;DHT22;310;48.490;9.200;2022-07-04T16:05:05;29.10;21.70
652;DHT22;310;48.490;9.200;2022-07-04T16:07:33;29.30;21.60
652;DHT22;310;48.490;9.200;2022-07-04T16:09:59;29.00;22.10
652;DHT22;310;48.490;9.200;2022-07-04T16:12:24;29.20;22.90
652;DHT22;310;48.490;9.200;2022-07-04T16:14:50;29.00;22.90
652;DHT22;310;48.490;9.200;2022-07-04T16:17:16;29.40;21.70
652;DHT22;310;48.490;9.200;2022-07-04T16:19:41;28.40;22.80
652;DHT22;310;48.490;9.200;2022-07-04T16:22:07;29.00;21.90
652;DHT22;310;48.490;9.200;2022-07-04T16:24:33;29.00;22.90
652;DHT22;310;48.490;9.200;2022-07-04T16:26:58;29.40;21.40
652;DHT22;310;48.490;9.200;2022-07-04T16:29:24;28.90;22.30
652;DHT22;310;48.490;9.200;2022-07-04T16:31:49;29.30;22.40
652;DHT22;310;48.490;9.200;2022-07-04T16:34:15;28.90;22.20
652;DHT22;310;48.490;9.200;2022-07-04T16:36:41;28.90;23.10
652;DHT22;310;48.490;9.200;2022-07-04T16:39:07;29.30;22.40
652;DHT22;310;48.490;9.200;2022-07-04T16:41:32;29.10;22.00
652;DHT22;310;48.490;9.200;2022-07-04T16:43:58;29.00;22.30
652;DHT22;310;48.490;9.200;2022-07-04T16:46:23;28.10;24.10
652;DHT22;310;48.490;9.200;2022-07-04T16:48:49;28.50;24.70
652;DHT22;310;48.490;9.200;2022-07-04T16:51:15;28.20;23.70
652;DHT22;310;48.490;9.200;2022-07-04T16:53:40;28.40;24.20
652;DHT22;310;48.490;9.200;2022-07-04T16:56:06;28.30;23.50
652;DHT22;310;48.490;9.200;2022-07-04T16:58:32;28.20;24.00
652;DHT22;310;48.490;9.200;2022-07-04T17:00:58;28.60;23.30
652;DHT22;310;48.490;9.200;2022-07-04T17:03:23;28.30;24.00